Time;durP1;ratioP1;P1;durP2;ratioP2;P2;SDS_P1;SDS_P2;PMS_P1;PMS_P2;Temp;Humidity;BMP_temperature;BMP_pressure;BME280_temperature;BME280_humidity;BME280_pressure;Samples;Min_cycle;Max_cycle;Signal;HPM_P1;HPM_P2
2021/11/19 00:00:59;;;;;;;;;;;;;;;14.60;60.19;101503.00;4883409;28;97910;-58
2021/11/19 00:03:25;;;;;;;;;;;;;;;14.59;59.84;101499.50;4866387;28;98055;-58
2021/11/19 00:05:51;;;;;;;;;;;;;;;14.58;59.91;101506.00;4865663;28;120547;-58
2021/11/19 00:08:25;;;;;;;;;;;;;;;14.59;60.07;101504.09;4884200;28;98367;-62
2021/11/19 00:10:52;;;;;;;;;;;;;;;14.59;60.32;101513.06;4884639;28;98052;-57
2021/11/19 00:13:18;;;;;;;;;;;;;;;14.60;60.10;101511.16;4883712;28;98807;-66
2021/11/19 00:15:44;;;;;;;;;;;;;;;14.61;60.16;101515.50;4882538;28;123454;-66
2021/11/19 00:18:09;;;;;;;;;;;;;;;14.60;60.26;101514.69;4884145;28;101049;-66
2021/11/19 00:20:35;;;;;;;;;;;;;;;14.59;60.08;101502.19;4865625;28;127037;-58
2021/11/19 00:23:03;;;;;;;;;;;;;;;14.61;60.18;101508.16;4865564;28;115705;-58
2021/11/19 00:25:29;;;;;;;;;;;;;;;14.63;60.10;101507.91;4882411;28;98229;-65
2021/11/19 00:27:55;;;;;;;;;;;;;;;14.63;60.16;101506.00;4865536;28;128168;-58
2021/11/19 00:30:21;;;;;;;;;;;;;;;14.62;60.15;101492.69;4882217;28;114813;-65
2021/11/19 00:32:48;;;;;;;;;;;;;;;14.62;59.91;101506.25;4882953;28;119883;-66
2021/11/19 00:35:15;;;;;;;;;;;;;;;14.64;60.21;101509.53;4883667;28;100005;-58
2021/11/19 00:37:41;;;;;;;;;;;;;;;14.64;59.78;101495.97;4883925;28;98912;-65
2021/11/19 00:40:12;;;;;;;;;;;;;;;14.65;59.90;101489.44;4883820;28;98066;-58
2021/11/19 00:42:38;;;;;;;;;;;;;;;14.64;59.70;101493.25;4884361;28;97965;-57
2021/11/19 00:45:05;;;;;;;;;;;;;;;14.64;59.92;101499.50;4883918;28;104111;-57
2021/11/19 00:47:30;;;;;;;;;;;;;;;14.66;60.31;101488.38;4881892;28;124619;-65
2021/11/19 00:49:59;;;;;;;;;;;;;;;14.65;59.75;101490.25;4882691;28;126768;-66
2021/11/19 00:52:26;;;;;;;;;;;;;;;14.67;59.76;101498.16;4882853;28;97903;-58
2021/11/19 00:54:52;;;;;;;;;;;;;;;14.66;60.05;101496.53;4882652;28;98198;-58
2021/11/19 00:57:19;;;;;;;;;;;;;;;14.67;60.06;101498.16;4883404;28;99034;-58
2021/11/19 00:59:45;;;;;;;;;;;;;;;14.67;60.06;101493.53;4884131;28;98201;-58
2021/11/19 01:02:22;;;;;;;;;;;;;;;14.68;59.80;101488.91;4883387;28;98158;-58
2021/11/19 01:04:48;;;;;;;;;;;;;;;14.67;59.77;101498.16;4882650;28;98498;-66
2021/11/19 01:07:14;;;;;;;;;;;;;;;14.68;59.76;101499.75;4848928;28;116996;-58
2021/11/19 01:09:43;;;;;;;;;;;;;;;14.68;60.05;101492.44;4881927;28;125089;-58
2021/11/19 01:12:10;;;;;;;;;;;;;;;14.68;59.96;101497.88;4883649;28;98191;-59
2021/11/19 01:14:38;;;;;;;;;;;;;;;14.69;60.04;101498.66;4882635;28;97938;-58
2021/11/19 01:17:08;;;;;;;;;;;;;;;14.69;59.94;101487.81;4883806;28;99017;-59
2021/11/19 01:19:51;;;;;;;;;;;;;;;14.68;59.82;101495.16;4879982;28;106908;-66
2021/11/19 01:22:20;;;;;;;;;;;;;;;14.70;60.15;101494.91;4866715;28;97916;-66
2021/11/19 01:24:46;;;;;;;;;;;;;;;14.70;60.11;101495.72;4883191;28;98374;-66
2021/11/19 01:27:12;;;;;;;;;;;;;;;14.70;59.96;101490.28;4883110;28;97997;-58
2021/11/19 01:29:38;;;;;;;;;;;;;;;14.70;60.09;101493.00;4881741;28;126844;-58
2021/11/19 01:32:09;;;;;;;;;;;;;;;14.71;60.06;101494.63;4882109;28;123418;-65
2021/11/19 01:34:35;;;;;;;;;;;;;;;14.71;59.92;101500.03;4882934;28;98163;-66
2021/11/19 01:37:02;;;;;;;;;;;;;;;14.72;60.13;101500.84;4864751;28;114980;-58
2021/11/19 01:39:30;;;;;;;;;;;;;;;14.72;60.22;101498.13;4848229;28;114963;-58
2021/11/19 01:42:04;;;;;;;;;;;;;;;14.72;59.88;101500.84;4882248;28;97799;-58
2021/11/19 01:44:52;;;;;;;;;;;;;;;14.72;60.12;101509.81;4882367;28;98414;-66
2021/11/19 01:47:18;;;;;;;;;;;;;;;14.73;60.17;101503.28;4881275;28;100877;-58
2021/11/19 01:49:44;;;;;;;;;;;;;;;14.72;60.06;101504.38;4881100;28;126571;-58
2021/11/19 01:52:13;;;;;;;;;;;;;;;14.73;60.15;101494.34;4882625;28;99361;-57
2021/11/19 01:54:45;;;;;;;;;;;;;;;14.72;60.05;101504.38;4848882;28;98325;-58
2021/11/19 01:57:24;;;;;;;;;;;;;;;14.72;60.24;101498.94;4865200;28;98385;-58
2021/11/19 02:00:06;;;;;;;;;;;;;;;14.72;60.30;101500.84;4849796;28;98103;-66
2021/11/19 02:02:38;;;;;;;;;;;;;;;14.71;59.86;101501.94;4882571;28;97860;-58
2021/11/19 02:05:27;;;;;;;;;;;;;;;14.73;60.16;101503.28;4882486;28;98858;-58
2021/11/19 02:07:56;;;;;;;;;;;;;;;14.72;60.28;101504.38;4881933;28;98374;-66
2021/11/19 02:10:27;;;;;;;;;;;;;;;14.71;60.26;101508.19;4848411;28;123478;-58
2021/11/19 02:13:14;;;;;;;;;;;;;;;14.71;59.97;101493.81;4881719;28;116776;-66
2021/11/19 02:15:45;;;;;;;;;;;;;;;14.71;60.10;101497.31;4867969;28;98412;-65
2021/11/19 02:18:17;;;;;;;;;;;;;;;14.72;59.96;101500.84;4880381;28;108012;-58
2021/11/19 02:20:44;;;;;;;;;;;;;;;14.72;60.06;101492.72;4864117;28;119148;-58
2021/11/19 02:23:40;;;;;;;;;;;;;;;14.72;60.25;101490.81;4864184;28;111129;-66
2021/11/19 02:26:21;;;;;;;;;;;;;;;14.72;60.36;101496.25;4881612;28;118031;-57
2021/11/19 02:28:48;;;;;;;;;;;;;;;14.72;60.01;101481.84;4880924;28;125139;-58
2021/11/19 02:31:26;;;;;;;;;;;;;;;14.72;59.99;101490.00;4881150;28;124465;-66
2021/11/19 02:33:54;;;;;;;;;;;;;;;14.72;60.27;101479.16;4881232;28;120889;-65
2021/11/19 02:36:44;;;;;;;;;;;;;;;14.72;59.95;101490.00;4880947;28;97920;-58
2021/11/19 02:39:19;;;;;;;;;;;;;;;14.72;60.31;101487.28;4881218;28;99077;-66
2021/11/19 02:41:48;;;;;;;;;;;;;;;14.72;60.03;101496.25;4839601;28;100243;-58
2021/11/19 02:44:17;;;;;;;;;;;;;;;14.73;60.44;101476.16;4863446;28;98031;-58
2021/11/19 02:46:46;;;;;;;;;;;;;;;14.73;60.14;101476.16;4881785;28;99125;-65
2021/11/19 02:49:12;;;;;;;;;;;;;;;14.75;60.26;101473.19;4881530;28;98837;-57
2021/11/19 02:51:38;;;;;;;;;;;;;;;14.75;60.51;101475.09;4881587;28;99626;-58
2021/11/19 02:54:05;;;;;;;;;;;;;;;14.76;60.15;101471.28;4883348;28;98069;-58
2021/11/19 02:56:31;;;;;;;;;;;;;;;14.76;59.94;101474.81;4884492;28;98418;-65
2021/11/19 02:58:59;;;;;;;;;;;;;;;14.76;60.07;101471.28;4884816;28;98183;-58
2021/11/19 03:01:26;;;;;;;;;;;;;;;14.75;60.35;101472.38;4884990;28;98649;-58
2021/11/19 03:04:04;;;;;;;;;;;;;;;14.77;60.41;101486.47;4884708;28;99507;-66
2021/11/19 03:06:35;;;;;;;;;;;;;;;14.76;60.11;101482.94;4885495;28;100066;-66
2021/11/19 03:09:01;;;;;;;;;;;;;;;14.77;60.40;101483.75;4872190;28;98101;-66
2021/11/19 03:11:27;;;;;;;;;;;;;;;14.77;60.12;101478.31;4883935;28;127202;-57
2021/11/19 03:13:52;;;;;;;;;;;;;;;14.77;60.31;101479.13;4884920;28;123230;-66
2021/11/19 03:16:18;;;;;;;;;;;;;;;14.77;60.02;101472.91;4865785;28;128262;-58
2021/11/19 03:18:44;;;;;;;;;;;;;;;14.78;60.13;101475.38;4863703;28;128552;-58
2021/11/19 03:21:15;;;;;;;;;;;;;;;14.78;60.44;101475.38;4879701;28;98284;-66
2021/11/19 03:23:41;;;;;;;;;;;;;;;14.78;60.04;101483.50;4884984;28;99255;-58
2021/11/19 03:26:07;;;;;;;;;;;;;;;14.78;60.46;101490.84;4883679;28;124537;-58
2021/11/19 03:28:33;;;;;;;;;;;;;;;14.80;60.49;101502.22;4883185;28;119477;-66
2021/11/19 03:31:03;;;;;;;;;;;;;;;14.80;60.23;101494.88;4884157;28;117954;-57
2021/11/19 03:33:30;;;;;;;;;;;;;;;14.80;60.13;101488.66;4883902;28;97873;-59
2021/11/19 03:35:56;;;;;;;;;;;;;;;14.80;60.11;101492.16;4884358;28;98872;-66
2021/11/19 03:38:23;;;;;;;;;;;;;;;14.82;60.44;101475.63;4884204;28;112349;-58
2021/11/19 03:40:49;;;;;;;;;;;;;;;14.82;60.45;101486.50;4884615;28;98527;-58
2021/11/19 03:43:19;;;;;;;;;;;;;;;14.82;60.36;101489.22;4883696;28;97783;-66
2021/11/19 03:45:48;;;;;;;;;;;;;;;14.82;60.37;101491.91;4884395;28;98852;-58
2021/11/19 03:48:14;;;;;;;;;;;;;;;14.82;60.20;101481.06;4883530;28;114524;-61
2021/11/19 03:50:43;;;;;;;;;;;;;;;14.82;60.20;101470.22;4883458;28;125322;-66
2021/11/19 03:53:10;;;;;;;;;;;;;;;14.83;60.54;101477.25;4865597;28;117912;-66
2021/11/19 03:55:38;;;;;;;;;;;;;;;14.84;60.87;101474.25;4884048;28;113746;-58
2021/11/19 03:58:04;;;;;;;;;;;;;;;14.84;60.29;101484.31;4883489;28;98795;-57
2021/11/19 04:00:36;;;;;;;;;;;;;;;14.84;60.28;101476.97;4882229;28;128648;-58
2021/11/19 04:03:02;;;;;;;;;;;;;;;14.85;60.14;101483.22;4883827;28;116145;-58
2021/11/19 04:05:29;;;;;;;;;;;;;;;14.84;60.36;101482.41;4883068;28;118236;-65
2021/11/19 04:07:55;;;;;;;;;;;;;;;14.84;60.19;101474.25;4884455;28;99041;-57
2021/11/19 04:10:21;;;;;;;;;;;;;;;14.86;60.35;101479.44;4882572;28;127952;-66
2021/11/19 04:12:47;;;;;;;;;;;;;;;14.86;60.46;101488.38;4883173;28;122035;-66
2021/11/19 04:15:16;;;;;;;;;;;;;;;14.86;60.69;101482.16;4882425;28;116094;-58
2021/11/19 04:17:42;;;;;;;;;;;;;;;14.86;60.31;101482.16;4883210;28;117283;-66
2021/11/19 04:20:09;;;;;;;;;;;;;;;14.86;60.42;101482.16;4883069;28;107306;-66
2021/11/19 04:22:35;;;;;;;;;;;;;;;14.87;60.69;101483.78;4884339;28;98047;-58
2021/11/19 04:25:04;;;;;;;;;;;;;;;14.87;60.32;101489.19;4882276;28;127921;-58
2021/11/19 04:27:31;;;;;;;;;;;;;;;14.87;60.84;101484.59;4866083;28;98277;-57
2021/11/19 04:29:56;;;;;;;;;;;;;;;14.87;60.69;101487.28;4882026;28;104294;-65
2021/11/19 04:32:23;;;;;;;;;;;;;;;14.88;60.70;101486.19;4884234;28;110501;-66
2021/11/19 04:34:50;;;;;;;;;;;;;;;14.88;60.55;101490.81;4883030;28;98575;-66
2021/11/19 04:37:16;;;;;;;;;;;;;;;14.90;60.55;101494.09;4882571;28;120190;-58
2021/11/19 04:39:42;;;;;;;;;;;;;;;14.90;60.84;101502.22;4883171;28;112346;-65
2021/11/19 04:42:08;;;;;;;;;;;;;;;14.91;60.38;101501.16;4883851;28;122618;-57
2021/11/19 04:44:34;;;;;;;;;;;;;;;14.91;60.62;101515.53;4882097;28;123116;-58
2021/11/19 04:47:00;;;;;;;;;;;;;;;14.92;60.67;101508.19;4864771;28;114304;-58
2021/11/19 04:49:26;;;;;;;;;;;;;;;14.91;60.54;101507.38;4882980;28;102086;-58
2021/11/19 04:51:53;;;;;;;;;;;;;;;14.92;60.89;101509.00;4882273;28;122558;-59
2021/11/19 04:54:20;;;;;;;;;;;;;;;14.92;61.00;101509.00;4881987;28;119354;-65
2021/11/19 04:56:46;;;;;;;;;;;;;;;14.92;60.60;101510.91;4865762;28;98703;-66
2021/11/19 04:59:12;;;;;;;;;;;;;;;14.93;60.55;101509.81;4881791;28;121065;-58
2021/11/19 05:01:41;;;;;;;;;;;;;;;14.93;60.98;101507.09;4884745;28;97773;-66
2021/11/19 05:04:07;;;;;;;;;;;;;;;14.94;60.88;101511.47;4883237;28;98055;-58
2021/11/19 05:06:33;;;;;;;;;;;;;;;14.93;60.66;101518.78;4883375;28;99042;-58
2021/11/19 05:08:59;;;;;;;;;;;;;;;14.94;60.98;101509.56;4881230;28;125787;-66
2021/11/19 05:11:29;;;;;;;;;;;;;;;14.94;61.03;101511.47;4882606;28;122512;-65
2021/11/19 05:13:55;;;;;;;;;;;;;;;14.94;60.81;101514.19;4881702;28;98171;-66
2021/11/19 05:16:21;;;;;;;;;;;;;;;14.94;60.79;101514.19;4882170;28;119885;-65
2021/11/19 05:18:47;;;;;;;;;;;;;;;14.93;60.74;101513.38;4881942;28;127071;-65
2021/11/19 05:21:15;;;;;;;;;;;;;;;14.94;60.98;101516.91;4883201;28;97893;-58
2021/11/19 05:23:41;;;;;;;;;;;;;;;14.94;61.04;101514.19;4882137;28;97953;-58
2021/11/19 05:26:07;;;;;;;;;;;;;;;14.95;61.05;101515.81;4881959;28;126742;-57
2021/11/19 05:28:33;;;;;;;;;;;;;;;14.94;61.15;101523.13;4882008;28;105400;-57
2021/11/19 05:30:59;;;;;;;;;;;;;;;14.94;61.04;101517.69;4882727;28;122508;-58
2021/11/19 05:33:26;;;;;;;;;;;;;;;14.93;60.93;101521.50;4883390;28;98649;-65
2021/11/19 05:35:52;;;;;;;;;;;;;;;14.93;61.10;101518.78;4881997;28;99234;-58
2021/11/19 05:38:19;;;;;;;;;;;;;;;14.93;61.11;101523.38;4882320;28;98388;-58
2021/11/19 05:40:44;;;;;;;;;;;;;;;14.93;61.19;101526.94;4882002;28;98026;-58
2021/11/19 05:43:10;;;;;;;;;;;;;;;14.93;61.21;101521.50;4880666;28;126358;-58
2021/11/19 05:45:36;;;;;;;;;;;;;;;14.92;60.80;101517.16;4878911;28;128982;-58
2021/11/19 05:48:03;;;;;;;;;;;;;;;14.93;61.24;101526.09;4893928;28;98261;-58
2021/11/19 05:50:31;;;;;;;;;;;;;;;14.92;61.18;101528.00;4894784;28;98119;-58
2021/11/19 05:52:57;;;;;;;;;;;;;;;14.92;61.29;101527.19;4897873;28;98272;-57
2021/11/19 05:55:24;;;;;;;;;;;;;;;14.92;61.40;101519.88;4870302;28;98266;-58
2021/11/19 05:57:50;;;;;;;;;;;;;;;14.91;61.05;101523.66;4896964;28;124662;-58
2021/11/19 06:00:20;;;;;;;;;;;;;;;14.92;61.10;101527.19;4894513;28;122761;-58
2021/11/19 06:02:47;;;;;;;;;;;;;;;14.93;61.05;101529.66;4897158;28;99476;-58
2021/11/19 06:05:13;;;;;;;;;;;;;;;14.93;61.46;101526.94;4890135;28;99154;-58
2021/11/19 06:07:39;;;;;;;;;;;;;;;14.93;61.48;101535.09;4896818;28;115483;-57
2021/11/19 06:10:06;;;;;;;;;;;;;;;14.94;61.43;101525.03;4875827;28;98549;-58
2021/11/19 06:12:35;;;;;;;;;;;;;;;14.94;61.16;101533.19;4897623;28;99087;-58
2021/11/19 06:15:04;;;;;;;;;;;;;;;14.94;61.40;101534.00;4873800;28;98709;-58
2021/11/19 06:17:34;;;;;;;;;;;;;;;14.94;61.64;101530.47;4860523;28;98896;-58
2021/11/19 06:20:06;;;;;;;;;;;;;;;14.95;61.47;101526.66;4896659;28;115110;-58
2021/11/19 06:22:45;;;;;;;;;;;;;;;14.95;61.34;101535.63;4872050;28;122986;-57
2021/11/19 06:25:13;;;;;;;;;;;;;;;14.95;61.19;101526.66;4870774;28;109641;-58
2021/11/19 06:27:39;;;;;;;;;;;;;;;14.95;61.19;101538.31;4897407;28;98384;-58
2021/11/19 06:30:11;;;;;;;;;;;;;;;14.95;61.46;101543.75;4891050;28;122623;-58
2021/11/19 06:32:37;;;;;;;;;;;;;;;14.97;61.39;101546.19;4892160;28;120065;-58
2021/11/19 06:35:03;;;;;;;;;;;;;;;14.97;61.39;101543.47;4890678;28;105390;-58
2021/11/19 06:37:29;;;;;;;;;;;;;;;14.96;61.25;101542.66;4894658;28;98512;-58
2021/11/19 06:39:55;;;;;;;;;;;;;;;14.98;61.29;101559.50;4889880;28;123746;-58
2021/11/19 06:42:22;;;;;;;;;;;;;;;14.98;61.51;101556.00;4883392;28;118672;-58
2021/11/19 06:44:47;;;;;;;;;;;;;;;14.98;61.56;101556.00;4887978;28;98744;-57
2021/11/19 06:47:14;;;;;;;;;;;;;;;14.99;61.28;101552.19;4890194;28;120625;-58
2021/11/19 06:49:40;;;;;;;;;;;;;;;15.00;61.60;101561.13;4891916;28;97908;-58
2021/11/19 06:52:06;;;;;;;;;;;;;;;15.01;61.67;101554.63;4893664;28;128518;-57
2021/11/19 06:54:32;;;;;;;;;;;;;;;15.01;61.64;101549.19;4877220;28;98378;-58
2021/11/19 06:56:58;;;;;;;;;;;;;;;15.01;61.80;101547.28;4895598;28;98224;-58
2021/11/19 06:59:24;;;;;;;;;;;;;;;15.02;61.47;101548.94;4877614;28;112528;-58
2021/11/19 07:01:50;;;;;;;;;;;;;;;15.02;61.62;101540.78;4895636;28;119056;-58
2021/11/19 07:04:16;;;;;;;;;;;;;;;15.03;61.37;101547.84;4891162;28;128692;-58
2021/11/19 07:06:43;;;;;;;;;;;;;;;15.04;61.52;101552.19;4891264;28;128637;-58
2021/11/19 07:09:09;;;;;;;;;;;;;;;15.06;61.43;101555.44;4895625;28;122737;-58
2021/11/19 07:11:35;;;;;;;;;;;;;;;15.07;61.44;101548.13;4888902;28;115569;-58
2021/11/19 07:14:01;;;;;;;;;;;;;;;15.07;61.71;101559.78;4891718;28;117535;-58
2021/11/19 07:16:29;;;;;;;;;;;;;;;15.10;61.43;101542.97;4879546;28;99810;-58
2021/11/19 07:18:55;;;;;;;;;;;;;;;15.11;61.45;101555.44;4889813;28;120106;-58
2021/11/19 07:21:22;;;;;;;;;;;;;;;15.13;61.71;101568.72;4874266;28;98244;-58
2021/11/19 07:23:48;;;;;;;;;;;;;;;15.14;61.66;101563.06;4877273;28;124204;-58
2021/11/19 07:26:14;;;;;;;;;;;;;;;15.15;61.66;101567.38;4895182;28;127730;-58
2021/11/19 07:28:40;;;;;;;;;;;;;;;15.16;61.69;101571.72;4895245;28;98045;-58
2021/11/19 07:31:08;;;;;;;;;;;;;;;15.16;61.51;101574.44;4895651;28;128340;-57
2021/11/19 07:33:35;;;;;;;;;;;;;;;15.18;61.50;101564.13;4896754;28;99688;-58
2021/11/19 07:36:04;;;;;;;;;;;;;;;15.20;61.61;101575.53;4895857;28;98007;-58
2021/11/19 07:38:30;;;;;;;;;;;;;;;15.21;61.63;101574.47;4895939;28;98184;-58
2021/11/19 07:40:56;;;;;;;;;;;;;;;15.23;61.36;101576.91;4900683;28;98121;-58
2021/11/19 07:43:22;;;;;;;;;;;;;;;15.23;61.69;101582.31;4899679;28;98448;-58
2021/11/19 07:45:48;;;;;;;;;;;;;;;15.23;61.50;101585.03;4892739;28;98449;-57
2021/11/19 07:48:19;;;;;;;;;;;;;;;15.26;61.49;101580.97;4899730;28;97793;-58
2021/11/19 07:50:46;;;;;;;;;;;;;;;15.26;61.58;101579.06;4898707;28;98517;-58
2021/11/19 07:53:13;;;;;;;;;;;;;;;15.29;61.82;101564.97;4899820;28;106567;-58
2021/11/19 07:55:40;;;;;;;;;;;;;;;15.31;61.91;101570.09;4899106;28;98592;-58
2021/11/19 07:58:06;;;;;;;;;;;;;;;15.32;61.58;101569.81;4893185;28;98077;-57
2021/11/19 08:00:34;;;;;;;;;;;;;;;15.34;61.88;101567.66;4898854;28;127692;-58
2021/11/19 08:03:00;;;;;;;;;;;;;;;15.35;61.94;101576.63;4898569;28;108341;-58
2021/11/19 08:05:26;;;;;;;;;;;;;;;15.35;61.88;101579.34;4894533;28;128771;-58
2021/11/19 08:07:51;;;;;;;;;;;;;;;15.36;62.02;101579.06;4899551;28;120226;-58
2021/11/19 08:10:17;;;;;;;;;;;;;;;15.38;61.76;101576.91;4875068;28;116472;-58
2021/11/19 08:12:44;;;;;;;;;;;;;;;15.39;61.96;101575.78;4876963;28;105231;-57
2021/11/19 08:15:09;;;;;;;;;;;;;;;15.38;61.77;101578.81;4872614;28;121451;-58
2021/11/19 08:17:38;;;;;;;;;;;;;;;15.39;62.14;101580.41;4893866;28;108473;-57
2021/11/19 08:20:06;;;;;;;;;;;;;;;15.40;61.72;101582.84;4888692;28;121076;-58
2021/11/19 08:22:33;;;;;;;;;;;;;;;15.40;61.68;101585.56;4899175;28;98747;-58
2021/11/19 08:24:59;;;;;;;;;;;;;;;15.41;62.10;101584.50;4892391;28;98818;-58
2021/11/19 08:27:28;;;;;;;;;;;;;;;15.43;62.11;101589.66;4895816;28;98299;-59
2021/11/19 08:29:55;;;;;;;;;;;;;;;15.45;61.95;101592.94;4887790;28;99361;-57
2021/11/19 08:32:22;;;;;;;;;;;;;;;15.47;62.10;101588.84;4898392;28;99315;-58
2021/11/19 08:34:48;;;;;;;;;;;;;;;15.47;61.75;101607.03;4889279;28;98779;-58
2021/11/19 08:37:15;;;;;;;;;;;;;;;15.46;61.99;101608.13;4899005;28;97844;-58
2021/11/19 08:39:41;;;;;;;;;;;;;;;15.47;62.04;101596.19;4893811;28;98531;-57
2021/11/19 08:42:09;;;;;;;;;;;;;;;15.47;62.39;101604.31;4885571;28;126763;-58
2021/11/19 08:44:38;;;;;;;;;;;;;;;15.46;62.31;101608.94;4893181;28;97999;-57
2021/11/19 08:47:05;;;;;;;;;;;;;;;15.45;62.15;101610.03;4890560;28;97796;-58
2021/11/19 08:49:33;;;;;;;;;;;;;;;15.45;62.26;101614.66;4873383;28;100325;-57
2021/11/19 08:51:59;;;;;;;;;;;;;;;15.46;62.51;101610.84;4896769;28;98148;-58
2021/11/19 08:54:25;;;;;;;;;;;;;;;15.46;62.44;101610.84;4894569;28;127673;-58
2021/11/19 08:56:56;;;;;;;;;;;;;;;15.47;62.16;101607.84;4892609;28;97908;-58
2021/11/19 08:59:23;;;;;;;;;;;;;;;15.48;62.51;101603.22;4893250;28;108686;-58
2021/11/19 09:01:50;;;;;;;;;;;;;;;15.48;62.25;101611.38;4885540;28;98679;-57
2021/11/19 09:04:19;;;;;;;;;;;;;;;15.50;62.49;101613.84;4896865;28;98129;-57
2021/11/19 09:06:45;;;;;;;;;;;;;;;15.50;62.32;101611.13;4883548;28;99700;-58
2021/11/19 09:09:10;;;;;;;;;;;;;;;15.52;62.24;101595.34;4895055;28;127955;-58
2021/11/19 09:11:37;;;;;;;;;;;;;;;15.53;62.37;101595.09;4889745;28;128295;-58
2021/11/19 09:14:03;;;;;;;;;;;;;;;15.55;62.37;101608.41;4895386;28;123428;-57
2021/11/19 09:16:38;;;;;;;;;;;;;;;15.57;62.25;101606.25;4896524;28;109015;-58
2021/11/19 09:19:10;;;;;;;;;;;;;;;15.58;62.70;101605.13;4889456;28;104400;-58
2021/11/19 09:22:10;;;;;;;;;;;;;;;15.63;62.53;101605.94;4891154;28;98443;-58
2021/11/19 09:24:37;;;;;;;;;;;;;;;15.64;62.56;101607.59;4857906;28;98967;-58
2021/11/19 09:27:10;;;;;;;;;;;;;;;15.67;62.45;101603.53;4884057;28;98482;-58
2021/11/19 09:29:58;;;;;;;;;;;;;;;15.68;62.32;101613.31;4888141;28;99505;-58
2021/11/19 09:32:24;;;;;;;;;;;;;;;15.71;62.46;101607.31;4888847;28;98773;-58
2021/11/19 09:34:52;;;;;;;;;;;;;;;15.73;62.27;101594.28;4879342;28;98702;-58
2021/11/19 09:37:18;;;;;;;;;;;;;;;15.76;62.57;101598.34;4885923;28;97855;-58
2021/11/19 09:39:45;;;;;;;;;;;;;;;15.77;62.54;101603.50;4890936;28;98726;-58
2021/11/19 09:42:11;;;;;;;;;;;;;;;15.78;62.50;101596.97;4896663;28;98353;-58
2021/11/19 09:45:01;;;;;;;;;;;;;;;15.79;62.35;101609.47;4895797;28;98145;-58
2021/11/19 09:47:36;;;;;;;;;;;;;;;15.85;62.37;101607.59;4898171;28;97956;-58
2021/11/19 09:50:23;;;;;;;;;;;;;;;15.87;62.53;101603.47;4895642;28;98649;-58
2021/11/19 09:53:37;;;;;;;;;;;;;;;15.90;62.50;101602.94;4896888;28;99167;-58
2021/11/19 09:56:40;;;;;;;;;;;;;;;15.98;62.36;101604.28;4877611;28;98126;-58
2021/11/19 09:59:36;;;;;;;;;;;;;;;16.03;62.45;101601.53;4892775;28;98054;-58
2021/11/19 10:02:21;;;;;;;;;;;;;;;16.03;62.52;101598.00;4897500;28;98957;-58
2021/11/19 10:05:02;;;;;;;;;;;;;;;16.03;62.53;101598.00;4896817;28;98376;-58
2021/11/19 10:07:46;;;;;;;;;;;;;;;16.02;62.63;101597.19;4893641;28;98159;-58
2021/11/19 10:10:39;;;;;;;;;;;;;;;16.05;62.58;101602.09;4894467;28;97977;-58
2021/11/19 10:13:05;;;;;;;;;;;;;;;16.07;62.80;101607.25;4897857;28;98859;-58
2021/11/19 10:15:37;;;;;;;;;;;;;;;16.08;62.71;101598.00;4890823;28;98847;-57
2021/11/19 10:18:11;;;;;;;;;;;;;;;16.09;62.85;101578.69;4895812;28;98140;-58
2021/11/19 10:20:50;;;;;;;;;;;;;;;16.12;62.67;101578.13;4889414;28;99328;-58
2021/11/19 10:23:30;;;;;;;;;;;;;;;16.12;62.76;101580.03;4876717;28;99296;-58
2021/11/19 10:26:04;;;;;;;;;;;;;;;16.11;62.81;101576.50;4887497;28;116567;-58
2021/11/19 10:28:42;;;;;;;;;;;;;;;16.13;62.89;101571.59;4897102;28;97903;-58
2021/11/19 10:31:10;;;;;;;;;;;;;;;16.14;62.74;101565.06;4889489;28;97912;-58
2021/11/19 10:33:39;;;;;;;;;;;;;;;16.15;62.92;101574.88;4887343;28;102731;-58
2021/11/19 10:36:31;;;;;;;;;;;;;;;16.15;62.88;101571.31;4853917;28;98883;-59
2021/11/19 10:39:33;;;;;;;;;;;;;;;16.14;63.01;101569.69;4879226;28;98213;-58
2021/11/19 10:42:24;;;;;;;;;;;;;;;16.17;62.80;101569.13;4897688;28;98103;-58
2021/11/19 10:45:28;;;;;;;;;;;;;;;16.18;62.93;101566.13;4871668;28;98457;-58
2021/11/19 10:48:06;;;;;;;;;;;;;;;16.24;62.91;101571.56;4889395;28;98022;-57
2021/11/19 10:51:06;;;;;;;;;;;;;;;16.28;62.85;101569.91;4874119;28;100031;-58
2021/11/19 10:53:50;;;;;;;;;;;;;;;16.28;62.74;101570.72;4878041;28;118368;-58
2021/11/19 10:56:50;;;;;;;;;;;;;;;16.29;62.60;101556.03;4892962;28;97999;-57
2021/11/19 11:00:06;;;;;;;;;;;;;;;16.28;62.86;101562.56;4882204;28;99052;-58
2021/11/19 11:02:48;;;;;;;;;;;;;;;16.28;62.95;101556.31;4851410;28;97991;-58
2021/11/19 11:05:31;;;;;;;;;;;;;;;16.25;63.04;101554.16;4850008;28;98490;-58
2021/11/19 11:08:12;;;;;;;;;;;;;;;16.28;63.06;101565.28;4882453;28;99104;-57
2021/11/19 11:10:45;;;;;;;;;;;;;;;16.32;62.93;101570.97;4895507;28;99218;-57
2021/11/19 11:13:27;;;;;;;;;;;;;;;16.31;62.99;101562.00;4891518;28;113443;-57
2021/11/19 11:16:00;;;;;;;;;;;;;;;16.35;63.10;101559.56;4894879;28;98179;-58
2021/11/19 11:18:29;;;;;;;;;;;;;;;16.36;62.93;101553.00;4893991;28;99215;-58
2021/11/19 11:20:58;;;;;;;;;;;;;;;16.34;63.08;101564.16;4880204;28;105600;-58
2021/11/19 11:23:43;;;;;;;;;;;;;;;16.37;63.08;101563.59;4900359;28;98129;-57
2021/11/19 11:26:24;;;;;;;;;;;;;;;16.42;62.78;101555.41;4894809;28;97830;-57
2021/11/19 11:29:07;;;;;;;;;;;;;;;16.49;62.88;101554.28;4898489;28;123667;-58
2021/11/19 11:31:37;;;;;;;;;;;;;;;16.53;62.68;101553.44;4893820;28;98539;-58
2021/11/19 11:34:27;;;;;;;;;;;;;;;16.58;62.78;101536.28;4891790;28;98325;-58
2021/11/19 11:36:57;;;;;;;;;;;;;;;16.62;62.72;101556.38;4878231;28;98123;-58
2021/11/19 11:39:55;;;;;;;;;;;;;;;16.64;62.85;101560.47;4895981;28;98249;-58
2021/11/19 11:42:26;;;;;;;;;;;;;;;16.72;62.75;101564.50;4859314;28;98881;-58
2021/11/19 11:44:57;;;;;;;;;;;;;;;16.72;62.65;101553.59;4893322;28;98448;-58
2021/11/19 11:47:43;;;;;;;;;;;;;;;16.74;62.75;101556.91;4892111;28;111385;-57
2021/11/19 11:50:32;;;;;;;;;;;;;;;16.77;62.71;101553.59;4859911;28;119565;-58
2021/11/19 11:53:10;;;;;;;;;;;;;;;16.84;62.63;101543.22;4865983;28;116887;-58
2021/11/19 11:56:04;;;;;;;;;;;;;;;16.84;62.83;101545.13;4874001;28;98760;-57
2021/11/19 11:58:47;;;;;;;;;;;;;;;16.84;62.90;101539.69;4864436;28;98110;-58
2021/11/19 12:01:53;;;;;;;;;;;;;;;16.86;62.76;101542.94;4877439;28;98576;-58
2021/11/19 12:04:56;;;;;;;;;;;;;;;16.90;62.84;101541.28;4868842;28;98813;-57
2021/11/19 12:07:48;;;;;;;;;;;;;;;16.88;62.85;101538.81;4877066;28;126659;-58
2021/11/19 12:10:36;;;;;;;;;;;;;;;16.88;62.91;101543.47;4870260;28;97948;-58
2021/11/19 12:13:28;;;;;;;;;;;;;;;16.84;62.92;101545.13;4879616;28;98428;-57
2021/11/19 12:16:41;;;;;;;;;;;;;;;16.79;63.08;101540.53;4896246;28;98311;-66
2021/11/19 12:19:16;;;;;;;;;;;;;;;16.78;63.28;101540.78;4889027;28;99230;-58
2021/11/19 12:22:02;;;;;;;;;;;;;;;16.76;63.26;101537.56;4862929;28;97962;-57
2021/11/19 12:24:36;;;;;;;;;;;;;;;16.72;63.13;101534.56;4883861;28;98598;-58
2021/11/19 12:27:09;;;;;;;;;;;;;;;16.69;63.35;101533.19;4876955;28;99558;-58
2021/11/19 12:29:37;;;;;;;;;;;;;;;16.67;63.40;101532.69;4899355;28;98163;-58
2021/11/19 12:32:09;;;;;;;;;;;;;;;16.66;63.28;101535.66;4878155;28;97937;-57
2021/11/19 12:34:41;;;;;;;;;;;;;;;16.66;63.37;101527.50;4898629;28;98093;-58
2021/11/19 12:37:12;;;;;;;;;;;;;;;16.65;63.39;101532.13;4879585;28;99576;-65
2021/11/19 12:39:40;;;;;;;;;;;;;;;16.64;63.33;101525.06;4893519;28;98188;-66
2021/11/19 12:42:33;;;;;;;;;;;;;;;16.63;63.40;101523.47;4900460;28;97770;-58
2021/11/19 12:45:23;;;;;;;;;;;;;;;16.60;63.59;101526.75;4868588;28;98815;-57
2021/11/19 12:48:17;;;;;;;;;;;;;;;16.61;63.44;101519.38;4866172;28;99954;-66
2021/11/19 12:50:54;;;;;;;;;;;;;;;16.59;63.52;101529.75;4872886;28;98662;-57
2021/11/19 12:54:09;;;;;;;;;;;;;;;16.58;63.35;101525.38;4882053;28;97925;-58
2021/11/19 12:56:58;;;;;;;;;;;;;;;16.58;63.58;101525.38;4840955;28;112994;-66